Terminal Aerodrome Forecast
Issued by NWS

Home | Current Version | Previous Version | Text Only | Print | Product List | Glossary On
Versions: 1 2 3 4 5 6 7 8 9 10 11 12 13 14 15 16 17 18 19 20 21 22 23 24 25 26 27 28 29 30
000
FTUS45 KGJT 041739
TAFEGE
TAF
KEGE 041739Z 0418/0518 22012G18KT P6SM SCT130
     FM042000 25010KT P6SM VCTS SCT060CB BKN100
      TEMPO 0421/0424 VRB20G35KT -TSRA
     FM050300 15008KT P6SM SCT120 BKN150
     FM051200 VRB03KT P6SM BKN100=

USA.gov is the U.S. government's official web portal to all federal, state and local government web resources and services.